sensor_id;sensor_type;location;lat;lon;timestamp;pressure;altitude;pressure_sealevel;temperature;humidity
31538;BME280;18147;51.952;6.146;2024-01-27T00:00:22;103364.88;;;3.52;100.00
31538;BME280;18147;51.952;6.146;2024-01-27T00:02:48;103368.34;;;3.45;100.00
31538;BME280;18147;51.952;6.146;2024-01-27T00:05:13;103370.09;;;3.44;100.00
31538;BME280;18147;51.952;6.146;2024-01-27T00:07:39;103373.59;;;3.43;100.00
31538;BME280;18147;51.952;6.146;2024-01-27T00:10:06;103377.97;;;3.41;100.00
31538;BME280;18147;51.952;6.146;2024-01-27T00:12:32;103377.94;;;3.33;100.00
31538;BME280;18147;51.952;6.146;2024-01-27T00:14:57;103377.88;;;3.30;100.00
31538;BME280;18147;51.952;6.146;2024-01-27T00:17:23;103377.13;;;3.42;100.00
31538;BME280;18147;51.952;6.146;2024-01-27T00:19:51;103380.69;;;3.49;100.00
31538;BME280;18147;51.952;6.146;2024-01-27T00:22:17;103378.88;;;3.42;100.00
31538;BME280;18147;51.952;6.146;2024-01-27T00:24:43;103383.28;;;3.44;100.00
31538;BME280;18147;51.952;6.146;2024-01-27T00:27:08;103390.34;;;3.48;100.00
31538;BME280;18147;51.952;6.146;2024-01-27T00:29:34;103390.41;;;3.59;100.00
31538;BME280;18147;51.952;6.146;2024-01-27T00:31:59;103386.03;;;3.61;100.00
31538;BME280;18147;51.952;6.146;2024-01-27T00:34:25;103378.06;;;3.55;100.00
31538;BME280;18147;51.952;6.146;2024-01-27T00:36:51;103389.53;;;3.57;100.00
31538;BME280;18147;51.952;6.146;2024-01-27T00:39:17;103387.72;;;3.51;100.00
31538;BME280;18147;51.952;6.146;2024-01-27T00:41:43;103386.69;;;3.26;100.00
31538;BME280;18147;51.952;6.146;2024-01-27T00:44:09;103385.63;;;3.07;100.00
31538;BME280;18147;51.952;6.146;2024-01-27T00:46:39;103383.88;;;3.06;100.00
31538;BME280;18147;51.952;6.146;2024-01-27T00:49:04;103386.38;;;2.93;100.00
31538;BME280;18147;51.952;6.146;2024-01-27T00:51:30;103392.53;;;2.92;100.00
31538;BME280;18147;51.952;6.146;2024-01-27T00:53:56;103389.06;;;2.97;100.00
31538;BME280;18147;51.952;6.146;2024-01-27T00:56:21;103389.06;;;2.97;100.00
31538;BME280;18147;51.952;6.146;2024-01-27T00:58:46;103396.91;;;2.93;100.00
31538;BME280;18147;51.952;6.146;2024-01-27T01:01:12;103391.66;;;2.93;100.00
31538;BME280;18147;51.952;6.146;2024-01-27T01:03:37;103392.47;;;2.90;100.00
31538;BME280;18147;51.952;6.146;2024-01-27T01:06:03;103389.09;;;3.02;100.00
31538;BME280;18147;51.952;6.146;2024-01-27T01:08:28;103391.72;;;3.02;100.00
31538;BME280;18147;51.952;6.146;2024-01-27T01:10:54;103386.25;;;2.80;100.00
31538;BME280;18147;51.952;6.146;2024-01-27T01:13:20;103384.53;;;2.82;100.00
31538;BME280;18147;51.952;6.146;2024-01-27T01:15:45;103384.63;;;2.93;100.00
31538;BME280;18147;51.952;6.146;2024-01-27T01:18:11;103388.88;;;2.79;100.00
31538;BME280;18147;51.952;6.146;2024-01-27T01:20:36;103391.50;;;2.77;100.00
31538;BME280;18147;51.952;6.146;2024-01-27T01:23:01;103392.38;;;2.76;100.00
31538;BME280;18147;51.952;6.146;2024-01-27T01:25:28;103388.81;;;2.71;100.00
31538;BME280;18147;51.952;6.146;2024-01-27T01:27:53;103397.53;;;2.69;100.00
31538;BME280;18147;51.952;6.146;2024-01-27T01:30:19;103393.16;;;2.66;100.00
31538;BME280;18147;51.952;6.146;2024-01-27T01:32:44;103398.38;;;2.63;100.00
31538;BME280;18147;51.952;6.146;2024-01-27T01:35:10;103401.88;;;2.62;100.00
31538;BME280;18147;51.952;6.146;2024-01-27T01:37:36;103400.13;;;2.63;100.00
31538;BME280;18147;51.952;6.146;2024-01-27T01:40:01;103404.53;;;2.65;100.00
31538;BME280;18147;51.952;6.146;2024-01-27T01:42:28;103407.19;;;2.68;100.00
31538;BME280;18147;51.952;6.146;2024-01-27T01:44:54;103408.78;;;2.54;100.00
31538;BME280;18147;51.952;6.146;2024-01-27T01:47:20;103404.47;;;2.60;100.00
31538;BME280;18147;51.952;6.146;2024-01-27T01:49:48;103413.28;;;2.61;100.00
31538;BME280;18147;51.952;6.146;2024-01-27T01:52:14;103405.22;;;2.49;100.00
31538;BME280;18147;51.952;6.146;2024-01-27T01:54:48;103411.41;;;2.52;100.00
31538;BME280;18147;51.952;6.146;2024-01-27T01:57:14;103409.50;;;2.39;100.00
31538;BME280;18147;51.952;6.146;2024-01-27T01:59:39;103412.13;;;2.41;100.00
31538;BME280;18147;51.952;6.146;2024-01-27T02:02:07;103413.94;;;2.45;100.00
31538;BME280;18147;51.952;6.146;2024-01-27T02:04:42;103412.09;;;2.36;100.00
31538;BME280;18147;51.952;6.146;2024-01-27T02:07:09;103408.63;;;2.40;100.00
31538;BME280;18147;51.952;6.146;2024-01-27T02:09:34;103406.84;;;2.36;100.00
31538;BME280;18147;51.952;6.146;2024-01-27T02:12:00;103412.09;;;2.36;100.00
31538;BME280;18147;51.952;6.146;2024-01-27T02:14:26;103407.66;;;2.32;100.00
31538;BME280;18147;51.952;6.146;2024-01-27T02:16:53;103411.16;;;2.31;100.00
31538;BME280;18147;51.952;6.146;2024-01-27T02:19:19;103424.28;;;2.28;100.00
31538;BME280;18147;51.952;6.146;2024-01-27T02:21:44;103410.19;;;2.24;100.00
31538;BME280;18147;51.952;6.146;2024-01-27T02:24:10;103407.56;;;2.24;100.00
31538;BME280;18147;51.952;6.146;2024-01-27T02:26:35;103405.84;;;2.28;100.00
31538;BME280;18147;51.952;6.146;2024-01-27T02:29:01;103409.38;;;2.28;100.00
31538;BME280;18147;51.952;6.146;2024-01-27T02:31:27;103414.59;;;2.25;100.00
31538;BME280;18147;51.952;6.146;2024-01-27T02:33:52;103405.78;;;2.23;100.00
31538;BME280;18147;51.952;6.146;2024-01-27T02:36:17;103415.38;;;2.17;100.00
31538;BME280;18147;51.952;6.146;2024-01-27T02:38:43;103420.59;;;2.15;100.00
31538;BME280;18147;51.952;6.146;2024-01-27T02:41:12;103415.31;;;2.15;100.00
31538;BME280;18147;51.952;6.146;2024-01-27T02:43:37;103411.81;;;2.15;100.00
31538;BME280;18147;51.952;6.146;2024-01-27T02:46:07;103400.41;;;2.16;100.00
31538;BME280;18147;51.952;6.146;2024-01-27T02:48:33;103404.84;;;2.17;100.00
31538;BME280;18147;51.952;6.146;2024-01-27T02:51:02;103403.09;;;2.17;100.00
31538;BME280;18147;51.952;6.146;2024-01-27T02:53:27;103401.34;;;2.16;100.00
31538;BME280;18147;51.952;6.146;2024-01-27T02:55:53;103405.66;;;2.14;100.00
31538;BME280;18147;51.952;6.146;2024-01-27T02:58:18;103395.06;;;2.06;100.00
31538;BME280;18147;51.952;6.146;2024-01-27T03:00:44;103401.28;;;2.12;100.00
31538;BME280;18147;51.952;6.146;2024-01-27T03:03:09;103404.44;;;1.86;100.00
31538;BME280;18147;51.952;6.146;2024-01-27T03:05:35;103399.25;;;1.94;100.00
31538;BME280;18147;51.952;6.146;2024-01-27T03:08:00;103403.69;;;1.96;100.00
31538;BME280;18147;51.952;6.146;2024-01-27T03:10:26;103401.16;;;2.05;100.00
31538;BME280;18147;51.952;6.146;2024-01-27T03:12:52;103414.38;;;2.07;100.00
31538;BME280;18147;51.952;6.146;2024-01-27T03:15:18;103412.56;;;2.03;100.00
31538;BME280;18147;51.952;6.146;2024-01-27T03:17:43;103395.81;;;1.96;100.00
31538;BME280;18147;51.952;6.146;2024-01-27T03:20:09;103407.41;;;2.14;100.00
31538;BME280;18147;51.952;6.146;2024-01-27T03:22:35;103413.44;;;2.05;100.00
31538;BME280;18147;51.952;6.146;2024-01-27T03:25:00;103417.00;;;2.10;100.00
31538;BME280;18147;51.952;6.146;2024-01-27T03:27:26;103416.25;;;2.17;100.00
31538;BME280;18147;51.952;6.146;2024-01-27T03:29:51;103416.25;;;2.17;100.00
31538;BME280;18147;51.952;6.146;2024-01-27T03:32:17;103417.13;;;2.16;100.00
31538;BME280;18147;51.952;6.146;2024-01-27T03:34:46;103430.16;;;2.07;100.00
31538;BME280;18147;51.952;6.146;2024-01-27T03:37:11;103420.28;;;1.92;100.00
31538;BME280;18147;51.952;6.146;2024-01-27T03:39:37;103428.19;;;1.94;100.00
31538;BME280;18147;51.952;6.146;2024-01-27T03:42:02;103428.13;;;1.89;100.00
31538;BME280;18147;51.952;6.146;2024-01-27T03:44:28;103431.72;;;1.94;100.00
31538;BME280;18147;51.952;6.146;2024-01-27T03:46:53;103421.09;;;1.87;100.00
31538;BME280;18147;51.952;6.146;2024-01-27T03:49:19;103418.44;;;1.85;100.00
31538;BME280;18147;51.952;6.146;2024-01-27T03:51:44;103423.53;;;1.73;100.00
31538;BME280;18147;51.952;6.146;2024-01-27T03:54:10;103433.00;;;1.63;100.00
31538;BME280;18147;51.952;6.146;2024-01-27T03:56:35;103433.00;;;1.62;100.00
31538;BME280;18147;51.952;6.146;2024-01-27T03:59:01;103427.81;;;1.66;100.00
31538;BME280;18147;51.952;6.146;2024-01-27T04:01:28;103431.28;;;1.65;100.00
31538;BME280;18147;51.952;6.146;2024-01-27T04:03:54;103440.09;;;1.67;100.00
31538;BME280;18147;51.952;6.146;2024-01-27T04:06:19;103439.97;;;1.60;100.00
31538;BME280;18147;51.952;6.146;2024-01-27T04:08:45;103444.34;;;1.61;100.00
31538;BME280;18147;51.952;6.146;2024-01-27T04:11:21;103445.19;;;1.58;100.00
31538;BME280;18147;51.952;6.146;2024-01-27T04:13:49;103445.19;;;1.57;100.00
31538;BME280;18147;51.952;6.146;2024-01-27T04:16:18;103453.81;;;1.49;100.00
31538;BME280;18147;51.952;6.146;2024-01-27T04:18:43;103450.47;;;1.60;100.00
31538;BME280;18147;51.952;6.146;2024-01-27T04:21:09;103453.03;;;1.55;100.00
31538;BME280;18147;51.952;6.146;2024-01-27T04:23:34;103451.28;;;1.55;100.00
31538;BME280;18147;51.952;6.146;2024-01-27T04:26:00;103449.59;;;1.59;100.00
31538;BME280;18147;51.952;6.146;2024-01-27T04:28:25;103454.03;;;1.62;100.00
31538;BME280;18147;51.952;6.146;2024-01-27T04:30:51;103457.56;;;1.64;100.00
31538;BME280;18147;51.952;6.146;2024-01-27T04:33:17;103438.22;;;1.60;100.00
31538;BME280;18147;51.952;6.146;2024-01-27T04:35:42;103453.16;;;1.63;100.00
31538;BME280;18147;51.952;6.146;2024-01-27T04:38:08;103445.28;;;1.64;100.00
31538;BME280;18147;51.952;6.146;2024-01-27T04:40:34;103447.91;;;1.61;100.00
31538;BME280;18147;51.952;6.146;2024-01-27T04:43:00;103447.59;;;1.43;100.00
31538;BME280;18147;51.952;6.146;2024-01-27T04:45:27;103446.88;;;1.54;100.00
31538;BME280;18147;51.952;6.146;2024-01-27T04:47:53;103451.09;;;1.42;100.00
31538;BME280;18147;51.952;6.146;2024-01-27T04:50:19;103444.06;;;1.41;100.00
31538;BME280;18147;51.952;6.146;2024-01-27T04:52:45;103440.50;;;1.40;100.00
31538;BME280;18147;51.952;6.146;2024-01-27T04:55:11;103440.66;;;1.46;100.00
31538;BME280;18147;51.952;6.146;2024-01-27T04:57:36;103430.91;;;1.41;100.00
31538;BME280;18147;51.952;6.146;2024-01-27T05:00:02;103431.75;;;1.40;100.00
31538;BME280;18147;51.952;6.146;2024-01-27T05:02:29;103428.94;;;1.29;100.00
31538;BME280;18147;51.952;6.146;2024-01-27T05:04:55;103435.97;;;1.30;100.00
31538;BME280;18147;51.952;6.146;2024-01-27T05:07:20;103432.44;;;1.28;100.00
31538;BME280;18147;51.952;6.146;2024-01-27T05:09:46;103430.63;;;1.24;100.00
31538;BME280;18147;51.952;6.146;2024-01-27T05:12:11;103423.44;;;1.15;100.00
31538;BME280;18147;51.952;6.146;2024-01-27T05:14:37;103431.41;;;1.18;100.00
31538;BME280;18147;51.952;6.146;2024-01-27T05:17:03;103439.22;;;1.15;100.00
31538;BME280;18147;51.952;6.146;2024-01-27T05:19:28;103430.44;;;1.13;100.00
31538;BME280;18147;51.952;6.146;2024-01-27T05:21:54;103431.28;;;1.11;100.00
31538;BME280;18147;51.952;6.146;2024-01-27T05:24:19;103437.44;;;1.13;100.00
31538;BME280;18147;51.952;6.146;2024-01-27T05:26:45;103425.09;;;1.09;100.00
31538;BME280;18147;51.952;6.146;2024-01-27T05:29:10;103426.91;;;1.11;100.00
31538;BME280;18147;51.952;6.146;2024-01-27T05:31:36;103426.84;;;1.08;100.00
31538;BME280;18147;51.952;6.146;2024-01-27T05:34:01;103431.22;;;1.08;100.00
31538;BME280;18147;51.952;6.146;2024-01-27T05:36:27;103422.44;;;1.07;100.00
31538;BME280;18147;51.952;6.146;2024-01-27T05:38:52;103425.06;;;1.06;100.00
31538;BME280;18147;51.952;6.146;2024-01-27T05:41:18;103425.00;;;1.04;100.00
31538;BME280;18147;51.952;6.146;2024-01-27T05:43:43;103435.25;;;0.89;100.00
31538;BME280;18147;51.952;6.146;2024-01-27T05:46:09;103430.16;;;0.98;100.00
31538;BME280;18147;51.952;6.146;2024-01-27T05:48:35;103424.91;;;0.98;100.00
31538;BME280;18147;51.952;6.146;2024-01-27T05:51:00;103424.72;;;0.87;100.00
31538;BME280;18147;51.952;6.146;2024-01-27T05:53:26;103424.03;;;0.97;100.00
31538;BME280;18147;51.952;6.146;2024-01-27T05:55:52;103421.41;;;0.99;100.00
31538;BME280;18147;51.952;6.146;2024-01-27T05:58:19;103426.72;;;1.00;100.00
31538;BME280;18147;51.952;6.146;2024-01-27T06:00:48;103425.81;;;1.00;100.00
31538;BME280;18147;51.952;6.146;2024-01-27T06:03:14;103421.34;;;0.94;100.00
31538;BME280;18147;51.952;6.146;2024-01-27T06:05:41;103420.28;;;0.85;100.00
31538;BME280;18147;51.952;6.146;2024-01-27T06:08:07;103435.94;;;0.78;100.00
31538;BME280;18147;51.952;6.146;2024-01-27T06:10:33;103435.13;;;0.81;100.00
31538;BME280;18147;51.952;6.146;2024-01-27T06:12:59;103437.06;;;0.93;100.00
31538;BME280;18147;51.952;6.146;2024-01-27T06:15:24;103430.91;;;0.91;100.00
31538;BME280;18147;51.952;6.146;2024-01-27T06:17:50;103434.50;;;0.96;100.00
31538;BME280;18147;51.952;6.146;2024-01-27T06:20:16;103439.69;;;0.93;100.00
31538;BME280;18147;51.952;6.146;2024-01-27T06:22:43;103443.97;;;0.86;100.00
31538;BME280;18147;51.952;6.146;2024-01-27T06:25:08;103453.53;;;0.83;100.00
31538;BME280;18147;51.952;6.146;2024-01-27T06:27:34;103446.38;;;0.75;100.00
31538;BME280;18147;51.952;6.146;2024-01-27T06:30:00;103445.41;;;0.70;100.00
31538;BME280;18147;51.952;6.146;2024-01-27T06:32:25;103454.28;;;0.77;100.00
31538;BME280;18147;51.952;6.146;2024-01-27T06:34:50;103457.72;;;0.74;100.00
31538;BME280;18147;51.952;6.146;2024-01-27T06:37:16;103450.78;;;0.76;100.00
31538;BME280;18147;51.952;6.146;2024-01-27T06:39:41;103453.44;;;0.80;100.00
31538;BME280;18147;51.952;6.146;2024-01-27T06:42:07;103449.94;;;0.79;100.00
31538;BME280;18147;51.952;6.146;2024-01-27T06:44:32;103456.06;;;0.78;100.00
31538;BME280;18147;51.952;6.146;2024-01-27T06:46:58;103453.41;;;0.76;100.00
31538;BME280;18147;51.952;6.146;2024-01-27T06:49:23;103461.19;;;0.72;100.00
31538;BME280;18147;51.952;6.146;2024-01-27T06:51:49;103467.31;;;0.72;100.00
31538;BME280;18147;51.952;6.146;2024-01-27T06:54:14;103464.59;;;0.66;100.00
31538;BME280;18147;51.952;6.146;2024-01-27T06:56:40;103459.53;;;0.75;100.00
31538;BME280;18147;51.952;6.146;2024-01-27T06:59:05;103465.56;;;0.71;100.00
31538;BME280;18147;51.952;6.146;2024-01-27T07:01:31;103468.19;;;0.71;100.00
31538;BME280;18147;51.952;6.146;2024-01-27T07:03:56;103467.06;;;0.60;100.00
31538;BME280;18147;51.952;6.146;2024-01-27T07:06:21;103463.69;;;0.66;100.00
31538;BME280;18147;51.952;6.146;2024-01-27T07:08:47;103468.97;;;0.67;100.00
31538;BME280;18147;51.952;6.146;2024-01-27T07:11:12;103469.84;;;0.66;100.00
31538;BME280;18147;51.952;6.146;2024-01-27T07:13:38;103469.84;;;0.66;100.00
31538;BME280;18147;51.952;6.146;2024-01-27T07:16:04;103474.91;;;0.57;100.00
31538;BME280;18147;51.952;6.146;2024-01-27T07:18:30;103469.75;;;0.63;100.00
31538;BME280;18147;51.952;6.146;2024-01-27T07:20:56;103474.16;;;0.64;100.00
31538;BME280;18147;51.952;6.146;2024-01-27T07:23:24;103473.25;;;0.62;100.00
31538;BME280;18147;51.952;6.146;2024-01-27T07:25:49;103477.63;;;0.63;100.00
31538;BME280;18147;51.952;6.146;2024-01-27T07:28:15;103482.88;;;0.63;100.00
31538;BME280;18147;51.952;6.146;2024-01-27T07:30:43;103481.94;;;0.60;100.00
31538;BME280;18147;51.952;6.146;2024-01-27T07:33:09;103485.44;;;0.60;100.00
31538;BME280;18147;51.952;6.146;2024-01-27T07:35:34;103489.84;;;0.61;100.00
31538;BME280;18147;51.952;6.146;2024-01-27T07:38:00;103501.28;;;0.65;100.00
31538;BME280;18147;51.952;6.146;2024-01-27T07:40:25;103506.50;;;0.62;100.00
31538;BME280;18147;51.952;6.146;2024-01-27T07:42:51;103504.00;;;0.68;100.00
31538;BME280;18147;51.952;6.146;2024-01-27T07:45:16;103494.38;;;0.68;100.00
31538;BME280;18147;51.952;6.146;2024-01-27T07:47:42;103505.81;;;0.72;100.00
31538;BME280;18147;51.952;6.146;2024-01-27T07:50:08;103508.50;;;0.75;100.00
31538;BME280;18147;51.952;6.146;2024-01-27T07:52:35;103512.09;;;0.78;100.00
31538;BME280;18147;51.952;6.146;2024-01-27T07:55:01;103503.19;;;0.70;100.00
31538;BME280;18147;51.952;6.146;2024-01-27T07:57:27;103492.75;;;0.75;100.00
31538;BME280;18147;51.952;6.146;2024-01-27T07:59:53;103491.06;;;0.77;100.00
31538;BME280;18147;51.952;6.146;2024-01-27T08:02:18;103510.34;;;0.79;100.00
31538;BME280;18147;51.952;6.146;2024-01-27T08:04:44;103504.19;;;0.78;100.00
31538;BME280;18147;51.952;6.146;2024-01-27T08:07:09;103504.28;;;0.83;100.00
31538;BME280;18147;51.952;6.146;2024-01-27T08:09:36;103508.00;;;0.93;100.00
31538;BME280;18147;51.952;6.146;2024-01-27T08:12:01;103513.31;;;0.96;100.00
31538;BME280;18147;51.952;6.146;2024-01-27T08:14:28;103516.09;;;1.03;100.00
31538;BME280;18147;51.952;6.146;2024-01-27T08:16:55;103520.53;;;1.06;100.00
31538;BME280;18147;51.952;6.146;2024-01-27T08:19:23;103520.38;;;1.00;100.00
31538;BME280;18147;51.952;6.146;2024-01-27T08:21:48;103515.38;;;1.12;100.00
31538;BME280;18147;51.952;6.146;2024-01-27T08:24:14;103517.75;;;1.00;100.00
31538;BME280;18147;51.952;6.146;2024-01-27T08:26:40;103517.91;;;1.06;100.00
31538;BME280;18147;51.952;6.146;2024-01-27T08:29:08;103517.03;;;1.07;100.00
31538;BME280;18147;51.952;6.146;2024-01-27T08:31:33;103522.50;;;1.19;100.00
31538;BME280;18147;51.952;6.146;2024-01-27T08:33:59;103525.19;;;1.22;100.00
31538;BME280;18147;51.952;6.146;2024-01-27T08:36:24;103529.56;;;1.22;100.00
31538;BME280;18147;51.952;6.146;2024-01-27T08:38:50;103529.78;;;1.33;100.00
31538;BME280;18147;51.952;6.146;2024-01-27T08:41:16;103529.28;;;1.53;100.00
31538;BME280;18147;51.952;6.146;2024-01-27T08:43:41;103535.66;;;1.68;100.00
31538;BME280;18147;51.952;6.146;2024-01-27T08:46:06;103537.56;;;1.76;100.00
31538;BME280;18147;51.952;6.146;2024-01-27T08:48:36;103527.25;;;1.90;100.00
31538;BME280;18147;51.952;6.146;2024-01-27T08:51:02;103535.34;;;2.04;100.00
31538;BME280;18147;51.952;6.146;2024-01-27T08:53:27;103538.88;;;2.04;100.00
31538;BME280;18147;51.952;6.146;2024-01-27T08:55:53;103539.06;;;2.17;100.00
31538;BME280;18147;51.952;6.146;2024-01-27T08:58:18;103540.03;;;2.23;100.00
31538;BME280;18147;51.952;6.146;2024-01-27T09:00:44;103538.50;;;2.39;100.00
31538;BME280;18147;51.952;6.146;2024-01-27T09:03:09;103539.50;;;2.47;100.00
31538;BME280;18147;51.952;6.146;2024-01-27T09:05:35;103536.09;;;2.54;100.00
31538;BME280;18147;51.952;6.146;2024-01-27T09:08:00;103543.91;;;2.50;100.00
31538;BME280;18147;51.952;6.146;2024-01-27T09:10:26;103531.56;;;2.43;100.00
31538;BME280;18147;51.952;6.146;2024-01-27T09:12:51;103533.38;;;2.50;100.00
31538;BME280;18147;51.952;6.146;2024-01-27T09:15:17;103527.28;;;2.52;100.00
31538;BME280;18147;51.952;6.146;2024-01-27T09:17:42;103536.09;;;2.54;100.00
31538;BME280;18147;51.952;6.146;2024-01-27T09:20:08;103534.44;;;2.61;100.00
31538;BME280;18147;51.952;6.146;2024-01-27T09:22:34;103538.91;;;2.68;100.00
31538;BME280;18147;51.952;6.146;2024-01-27T09:24:59;103546.00;;;2.72;100.00
31538;BME280;18147;51.952;6.146;2024-01-27T09:27:25;103539.03;;;2.77;100.00
31538;BME280;18147;51.952;6.146;2024-01-27T09:29:50;103549.69;;;2.87;100.00
31538;BME280;18147;51.952;6.146;2024-01-27T09:32:16;103549.72;;;2.91;100.00
31538;BME280;18147;51.952;6.146;2024-01-27T09:34:41;103548.00;;;2.95;100.00
31538;BME280;18147;51.952;6.146;2024-01-27T09:37:07;103548.06;;;2.98;100.00
31538;BME280;18147;51.952;6.146;2024-01-27T09:39:32;103542.75;;;2.93;100.00
31538;BME280;18147;51.952;6.146;2024-01-27T09:42:00;103551.53;;;2.94;100.00
31538;BME280;18147;51.952;6.146;2024-01-27T09:44:30;103546.16;;;2.86;100.00
31538;BME280;18147;51.952;6.146;2024-01-27T09:46:56;103548.81;;;2.89;100.00
31538;BME280;18147;51.952;6.146;2024-01-27T09:49:22;103556.63;;;2.80;100.00
31538;BME280;18147;51.952;6.146;2024-01-27T09:51:50;103553.84;;;2.71;100.00
31538;BME280;18147;51.952;6.146;2024-01-27T09:54:16;103558.50;;;2.89;100.00
31538;BME280;18147;51.952;6.146;2024-01-27T09:56:43;103557.63;;;2.91;100.00
31538;BME280;18147;51.952;6.146;2024-01-27T09:59:10;103554.16;;;2.94;100.00
31538;BME280;18147;51.952;6.146;2024-01-27T10:01:40;103562.19;;;3.03;100.00
31538;BME280;18147;51.952;6.146;2024-01-27T10:04:08;103567.59;;;3.15;100.00
31538;BME280;18147;51.952;6.146;2024-01-27T10:06:34;103571.91;;;3.08;100.00
31538;BME280;18147;51.952;6.146;2024-01-27T10:08:59;103564.06;;;3.16;100.00
31538;BME280;18147;51.952;6.146;2024-01-27T10:11:26;103565.97;;;3.26;100.00
31538;BME280;18147;51.952;6.146;2024-01-27T10:13:57;103561.53;;;3.22;100.00
31538;BME280;18147;51.952;6.146;2024-01-27T10:16:25;103572.19;;;3.36;100.00
31538;BME280;18147;51.952;6.146;2024-01-27T10:19:01;103574.00;;;3.40;100.00
31538;BME280;18147;51.952;6.146;2024-01-27T10:21:27;103575.91;;;3.53;100.00
31538;BME280;18147;51.952;6.146;2024-01-27T10:23:53;103573.28;;;3.55;100.00
31538;BME280;18147;51.952;6.146;2024-01-27T10:26:18;103578.66;;;3.62;100.00
31538;BME280;18147;51.952;6.146;2024-01-27T10:28:53;103576.03;;;3.66;100.00
31538;BME280;18147;51.952;6.146;2024-01-27T10:31:19;103583.97;;;3.70;100.00
31538;BME280;18147;51.952;6.146;2024-01-27T10:33:52;103583.25;;;3.83;100.00
31538;BME280;18147;51.952;6.146;2024-01-27T10:36:19;103580.66;;;3.89;100.00
31538;BME280;18147;51.952;6.146;2024-01-27T10:38:44;103570.09;;;3.91;100.00
31538;BME280;18147;51.952;6.146;2024-01-27T10:41:10;103575.53;;;4.08;100.00
31538;BME280;18147;51.952;6.146;2024-01-27T10:43:37;103574.69;;;4.12;100.00
31538;BME280;18147;51.952;6.146;2024-01-27T10:46:07;103576.47;;;4.19;100.00
31538;BME280;18147;51.952;6.146;2024-01-27T10:48:36;103571.19;;;4.19;100.00
31538;BME280;18147;51.952;6.146;2024-01-27T10:51:09;103568.63;;;4.27;100.00
31538;BME280;18147;51.952;6.146;2024-01-27T10:53:37;103571.28;;;4.31;100.00
31538;BME280;18147;51.952;6.146;2024-01-27T10:56:05;103565.19;;;4.43;100.00
31538;BME280;18147;51.952;6.146;2024-01-27T10:58:35;103562.59;;;4.49;100.00
31538;BME280;18147;51.952;6.146;2024-01-27T11:01:11;103561.72;;;4.52;100.00
31538;BME280;18147;51.952;6.146;2024-01-27T11:03:40;103553.81;;;4.56;100.00
31538;BME280;18147;51.952;6.146;2024-01-27T11:06:07;103555.59;;;4.60;100.00
31538;BME280;18147;51.952;6.146;2024-01-27T11:08:34;103566.19;;;4.65;100.00
31538;BME280;18147;51.952;6.146;2024-01-27T11:11:00;103563.56;;;4.63;100.00
31538;BME280;18147;51.952;6.146;2024-01-27T11:13:30;103559.19;;;4.67;100.00
31538;BME280;18147;51.952;6.146;2024-01-27T11:15:57;103561.78;;;4.62;100.00
31538;BME280;18147;51.952;6.146;2024-01-27T11:18:26;103554.78;;;4.74;100.00
31538;BME280;18147;51.952;6.146;2024-01-27T11:20:53;103545.13;;;4.82;100.00
31538;BME280;18147;51.952;6.146;2024-01-27T11:23:19;103520.50;;;4.90;100.00
31538;BME280;18147;51.952;6.146;2024-01-27T11:25:44;103525.81;;;5.00;100.00
31538;BME280;18147;51.952;6.146;2024-01-27T11:28:15;103526.69;;;5.06;100.00
31538;BME280;18147;51.952;6.146;2024-01-27T11:30:47;103522.28;;;5.07;100.00
31538;BME280;18147;51.952;6.146;2024-01-27T11:33:13;103516.19;;;5.25;100.00
31538;BME280;18147;51.952;6.146;2024-01-27T11:35:39;103505.63;;;5.28;100.00
31538;BME280;18147;51.952;6.146;2024-01-27T11:38:04;103513.53;;;5.35;100.00
31538;BME280;18147;51.952;6.146;2024-01-27T11:40:30;103513.59;;;5.48;100.00
31538;BME280;18147;51.952;6.146;2024-01-27T11:43:02;103510.94;;;5.60;100.00
31538;BME280;18147;51.952;6.146;2024-01-27T11:45:28;103503.88;;;5.65;100.00
31538;BME280;18147;51.952;6.146;2024-01-27T11:47:55;103502.97;;;5.66;100.00
31538;BME280;18147;51.952;6.146;2024-01-27T11:50:21;103498.56;;;5.69;100.00
31538;BME280;18147;51.952;6.146;2024-01-27T11:52:47;103503.88;;;5.71;100.00
31538;BME280;18147;51.952;6.146;2024-01-27T11:55:12;103509.16;;;5.77;100.00
31538;BME280;18147;51.952;6.146;2024-01-27T11:57:40;103511.81;;;5.89;100.00
31538;BME280;18147;51.952;6.146;2024-01-27T12:00:06;103504.72;;;5.87;100.00
31538;BME280;18147;51.952;6.146;2024-01-27T12:02:33;103500.38;;;5.98;100.00
31538;BME280;18147;51.952;6.146;2024-01-27T12:04:58;103496.81;;;6.02;100.00
31538;BME280;18147;51.952;6.146;2024-01-27T12:07:25;103491.53;;;6.04;100.00
31538;BME280;18147;51.952;6.146;2024-01-27T12:09:51;103496.81;;;6.05;100.00
31538;BME280;18147;51.952;6.146;2024-01-27T12:12:17;103495.03;;;6.13;100.00
31538;BME280;18147;51.952;6.146;2024-01-27T12:14:48;103495.00;;;6.21;100.00
31538;BME280;18147;51.952;6.146;2024-01-27T12:17:14;103492.38;;;6.19;100.00
31538;BME280;18147;51.952;6.146;2024-01-27T12:19:52;103494.13;;;6.19;100.00
31538;BME280;18147;51.952;6.146;2024-01-27T12:22:26;103503.81;;;6.31;100.00
31538;BME280;18147;51.952;6.146;2024-01-27T12:24:56;103500.28;;;6.38;100.00
31538;BME280;18147;51.952;6.146;2024-01-27T12:27:22;103507.31;;;6.43;100.00
31538;BME280;18147;51.952;6.146;2024-01-27T12:29:49;103515.25;;;6.45;100.00
31538;BME280;18147;51.952;6.146;2024-01-27T12:32:17;103503.75;;;6.52;100.00
31538;BME280;18147;51.952;6.146;2024-01-27T12:34:43;103498.44;;;6.54;100.00
31538;BME280;18147;51.952;6.146;2024-01-27T12:37:13;103491.34;;;6.60;100.00
31538;BME280;18147;51.952;6.146;2024-01-27T12:39:45;103487.81;;;6.64;100.00
31538;BME280;18147;51.952;6.146;2024-01-27T12:42:11;103486.03;;;6.62;100.00
31538;BME280;18147;51.952;6.146;2024-01-27T12:44:37;103491.34;;;6.63;100.00